sensor_id;sensor_type;location;lat;lon;timestamp;P1;durP1;ratioP1;P2;durP2;ratioP2
55320;SDS011;41184;44.272;19.890;2022-11-21T00:00:19;19.80;;;13.13;;
55320;SDS011;41184;44.272;19.890;2022-11-21T00:02:46;19.83;;;13.55;;
55320;SDS011;41184;44.272;19.890;2022-11-21T00:05:12;24.25;;;14.82;;
55320;SDS011;41184;44.272;19.890;2022-11-21T00:07:38;22.55;;;14.55;;
55320;SDS011;41184;44.272;19.890;2022-11-21T00:10:05;23.50;;;14.52;;
55320;SDS011;41184;44.272;19.890;2022-11-21T00:12:31;24.50;;;14.45;;
55320;SDS011;41184;44.272;19.890;2022-11-21T00:14:57;39.88;;;24.15;;
55320;SDS011;41184;44.272;19.890;2022-11-21T00:17:23;28.58;;;17.20;;
55320;SDS011;41184;44.272;19.890;2022-11-21T00:19:49;27.63;;;17.08;;
55320;SDS011;41184;44.272;19.890;2022-11-21T00:22:15;33.05;;;20.20;;
55320;SDS011;41184;44.272;19.890;2022-11-21T00:24:41;33.83;;;19.60;;
55320;SDS011;41184;44.272;19.890;2022-11-21T00:27:07;27.98;;;16.92;;
55320;SDS011;41184;44.272;19.890;2022-11-21T00:29:33;30.08;;;18.30;;
55320;SDS011;41184;44.272;19.890;2022-11-21T00:31:59;23.27;;;14.73;;
55320;SDS011;41184;44.272;19.890;2022-11-21T00:34:25;21.70;;;14.88;;
55320;SDS011;41184;44.272;19.890;2022-11-21T00:36:51;20.48;;;13.05;;
55320;SDS011;41184;44.272;19.890;2022-11-21T00:39:17;22.30;;;12.48;;
55320;SDS011;41184;44.272;19.890;2022-11-21T00:41:43;24.05;;;14.50;;
55320;SDS011;41184;44.272;19.890;2022-11-21T00:44:10;17.05;;;11.27;;
55320;SDS011;41184;44.272;19.890;2022-11-21T00:46:36;17.40;;;11.52;;
55320;SDS011;41184;44.272;19.890;2022-11-21T00:49:02;18.35;;;12.60;;
55320;SDS011;41184;44.272;19.890;2022-11-21T00:51:28;16.55;;;11.30;;
55320;SDS011;41184;44.272;19.890;2022-11-21T00:53:54;19.85;;;11.18;;
55320;SDS011;41184;44.272;19.890;2022-11-21T00:56:20;36.45;;;20.67;;
55320;SDS011;41184;44.272;19.890;2022-11-21T00:58:46;18.38;;;12.20;;
55320;SDS011;41184;44.272;19.890;2022-11-21T01:01:13;16.52;;;11.45;;
55320;SDS011;41184;44.272;19.890;2022-11-21T01:03:40;14.57;;;10.40;;
55320;SDS011;41184;44.272;19.890;2022-11-21T01:06:07;14.30;;;10.10;;
55320;SDS011;41184;44.272;19.890;2022-11-21T01:08:35;11.73;;;8.10;;
55320;SDS011;41184;44.272;19.890;2022-11-21T01:11:04;12.90;;;8.85;;
55320;SDS011;41184;44.272;19.890;2022-11-21T01:13:31;13.43;;;8.80;;
55320;SDS011;41184;44.272;19.890;2022-11-21T01:16:01;11.75;;;7.65;;
55320;SDS011;41184;44.272;19.890;2022-11-21T01:18:28;10.88;;;7.13;;
55320;SDS011;41184;44.272;19.890;2022-11-21T01:20:57;9.98;;;6.65;;
55320;SDS011;41184;44.272;19.890;2022-11-21T01:23:23;12.68;;;7.88;;
55320;SDS011;41184;44.272;19.890;2022-11-21T01:25:49;10.55;;;7.10;;
55320;SDS011;41184;44.272;19.890;2022-11-21T01:28:15;15.32;;;8.90;;
55320;SDS011;41184;44.272;19.890;2022-11-21T01:30:41;14.98;;;9.85;;
55320;SDS011;41184;44.272;19.890;2022-11-21T01:33:07;17.95;;;11.43;;
55320;SDS011;41184;44.272;19.890;2022-11-21T01:35:33;13.80;;;9.10;;
55320;SDS011;41184;44.272;19.890;2022-11-21T01:37:59;16.25;;;10.55;;
55320;SDS011;41184;44.272;19.890;2022-11-21T01:40:25;16.90;;;10.63;;
55320;SDS011;41184;44.272;19.890;2022-11-21T01:43:02;20.63;;;12.05;;
55320;SDS011;41184;44.272;19.890;2022-11-21T01:48:22;13.40;;;8.40;;
55320;SDS011;41184;44.272;19.890;2022-11-21T01:50:50;10.85;;;6.82;;
55320;SDS011;41184;44.272;19.890;2022-11-21T01:53:16;9.80;;;6.35;;
55320;SDS011;41184;44.272;19.890;2022-11-21T01:55:42;8.05;;;5.90;;
55320;SDS011;41184;44.272;19.890;2022-11-21T01:58:08;8.25;;;5.78;;
55320;SDS011;41184;44.272;19.890;2022-11-21T02:00:35;10.52;;;6.95;;
55320;SDS011;41184;44.272;19.890;2022-11-21T02:03:04;9.50;;;6.50;;
55320;SDS011;41184;44.272;19.890;2022-11-21T02:05:34;11.77;;;7.82;;
55320;SDS011;41184;44.272;19.890;2022-11-21T02:08:01;11.43;;;8.43;;
55320;SDS011;41184;44.272;19.890;2022-11-21T02:10:28;14.68;;;9.40;;
55320;SDS011;41184;44.272;19.890;2022-11-21T02:12:55;14.15;;;9.13;;
55320;SDS011;41184;44.272;19.890;2022-11-21T02:15:23;15.65;;;9.52;;
55320;SDS011;41184;44.272;19.890;2022-11-21T02:17:50;12.68;;;8.15;;
55320;SDS011;41184;44.272;19.890;2022-11-21T02:20:17;10.90;;;7.50;;
55320;SDS011;41184;44.272;19.890;2022-11-21T02:22:46;9.00;;;7.07;;
55320;SDS011;41184;44.272;19.890;2022-11-21T02:25:16;10.30;;;6.73;;
55320;SDS011;41184;44.272;19.890;2022-11-21T02:27:43;10.57;;;6.57;;
55320;SDS011;41184;44.272;19.890;2022-11-21T02:30:10;12.23;;;8.18;;
55320;SDS011;41184;44.272;19.890;2022-11-21T02:32:38;10.90;;;6.85;;
55320;SDS011;41184;44.272;19.890;2022-11-21T02:35:04;10.30;;;6.75;;
55320;SDS011;41184;44.272;19.890;2022-11-21T02:37:31;9.85;;;6.95;;
55320;SDS011;41184;44.272;19.890;2022-11-21T02:39:59;11.10;;;7.47;;
55320;SDS011;41184;44.272;19.890;2022-11-21T02:42:33;26.27;;;16.42;;
55320;SDS011;41184;44.272;19.890;2022-11-21T02:47:27;8.43;;;6.25;;
55320;SDS011;41184;44.272;19.890;2022-11-21T02:50:27;10.05;;;6.65;;
55320;SDS011;41184;44.272;19.890;2022-11-21T02:52:46;12.18;;;7.38;;
55320;SDS011;41184;44.272;19.890;2022-11-21T02:55:12;13.80;;;7.05;;
55320;SDS011;41184;44.272;19.890;2022-11-21T02:57:39;10.43;;;7.18;;
55320;SDS011;41184;44.272;19.890;2022-11-21T03:00:06;11.00;;;6.80;;
55320;SDS011;41184;44.272;19.890;2022-11-21T03:02:32;16.77;;;11.00;;
55320;SDS011;41184;44.272;19.890;2022-11-21T03:04:58;11.65;;;8.15;;
55320;SDS011;41184;44.272;19.890;2022-11-21T03:07:25;12.45;;;7.45;;
55320;SDS011;41184;44.272;19.890;2022-11-21T03:09:51;8.63;;;6.55;;
55320;SDS011;41184;44.272;19.890;2022-11-21T03:12:17;19.25;;;10.50;;
55320;SDS011;41184;44.272;19.890;2022-11-21T03:14:43;14.95;;;9.45;;
55320;SDS011;41184;44.272;19.890;2022-11-21T03:17:09;24.40;;;11.93;;
55320;SDS011;41184;44.272;19.890;2022-11-21T03:19:35;19.75;;;11.65;;
55320;SDS011;41184;44.272;19.890;2022-11-21T03:22:01;15.30;;;9.55;;
55320;SDS011;41184;44.272;19.890;2022-11-21T03:24:27;16.00;;;9.38;;
55320;SDS011;41184;44.272;19.890;2022-11-21T03:26:53;11.48;;;7.85;;
55320;SDS011;41184;44.272;19.890;2022-11-21T03:29:19;9.57;;;5.85;;
55320;SDS011;41184;44.272;19.890;2022-11-21T03:31:45;17.67;;;10.07;;
55320;SDS011;41184;44.272;19.890;2022-11-21T03:34:11;27.15;;;18.98;;
55320;SDS011;41184;44.272;19.890;2022-11-21T03:36:37;35.33;;;19.70;;
55320;SDS011;41184;44.272;19.890;2022-11-21T03:39:03;28.17;;;17.00;;
55320;SDS011;41184;44.272;19.890;2022-11-21T03:41:29;29.38;;;17.13;;
55320;SDS011;41184;44.272;19.890;2022-11-21T03:44:03;25.95;;;14.55;;
55320;SDS011;41184;44.272;19.890;2022-11-21T03:46:30;10.48;;;6.60;;
55320;SDS011;41184;44.272;19.890;2022-11-21T03:48:56;35.20;;;17.95;;
55320;SDS011;41184;44.272;19.890;2022-11-21T03:51:23;10.63;;;6.75;;
55320;SDS011;41184;44.272;19.890;2022-11-21T03:53:49;10.05;;;6.88;;
55320;SDS011;41184;44.272;19.890;2022-11-21T03:56:15;10.00;;;7.80;;
55320;SDS011;41184;44.272;19.890;2022-11-21T03:58:41;8.82;;;6.50;;
55320;SDS011;41184;44.272;19.890;2022-11-21T04:01:08;7.50;;;5.57;;
55320;SDS011;41184;44.272;19.890;2022-11-21T04:03:34;8.45;;;6.10;;
55320;SDS011;41184;44.272;19.890;2022-11-21T04:06:00;9.50;;;6.63;;
55320;SDS011;41184;44.272;19.890;2022-11-21T04:08:27;11.13;;;7.72;;
55320;SDS011;41184;44.272;19.890;2022-11-21T04:10:53;42.38;;;25.67;;
55320;SDS011;41184;44.272;19.890;2022-11-21T04:13:19;10.05;;;7.30;;
55320;SDS011;41184;44.272;19.890;2022-11-21T04:15:45;10.35;;;7.32;;
55320;SDS011;41184;44.272;19.890;2022-11-21T04:18:12;12.35;;;8.30;;
55320;SDS011;41184;44.272;19.890;2022-11-21T04:20:38;12.27;;;8.38;;
55320;SDS011;41184;44.272;19.890;2022-11-21T04:23:05;9.50;;;6.97;;
55320;SDS011;41184;44.272;19.890;2022-11-21T04:25:31;10.48;;;7.53;;
55320;SDS011;41184;44.272;19.890;2022-11-21T04:27:58;12.45;;;7.22;;
55320;SDS011;41184;44.272;19.890;2022-11-21T04:30:24;8.88;;;6.55;;
55320;SDS011;41184;44.272;19.890;2022-11-21T04:32:53;9.45;;;6.72;;
55320;SDS011;41184;44.272;19.890;2022-11-21T04:35:19;12.88;;;7.97;;
55320;SDS011;41184;44.272;19.890;2022-11-21T04:37:46;11.20;;;7.45;;
55320;SDS011;41184;44.272;19.890;2022-11-21T04:40:12;14.40;;;8.80;;
55320;SDS011;41184;44.272;19.890;2022-11-21T04:42:42;14.65;;;8.70;;
55320;SDS011;41184;44.272;19.890;2022-11-21T04:45:08;11.18;;;6.78;;
55320;SDS011;41184;44.272;19.890;2022-11-21T04:47:38;10.38;;;6.57;;
55320;SDS011;41184;44.272;19.890;2022-11-21T04:50:04;9.80;;;6.85;;
55320;SDS011;41184;44.272;19.890;2022-11-21T04:52:30;9.77;;;6.47;;
55320;SDS011;41184;44.272;19.890;2022-11-21T04:54:57;8.90;;;6.18;;
55320;SDS011;41184;44.272;19.890;2022-11-21T04:57:23;10.23;;;7.07;;
55320;SDS011;41184;44.272;19.890;2022-11-21T04:59:49;11.30;;;6.82;;
55320;SDS011;41184;44.272;19.890;2022-11-21T05:02:15;9.38;;;6.53;;
55320;SDS011;41184;44.272;19.890;2022-11-21T05:04:41;10.75;;;6.93;;
55320;SDS011;41184;44.272;19.890;2022-11-21T05:07:07;11.75;;;8.30;;
55320;SDS011;41184;44.272;19.890;2022-11-21T05:09:33;14.20;;;10.32;;
55320;SDS011;41184;44.272;19.890;2022-11-21T05:11:59;12.57;;;8.95;;
55320;SDS011;41184;44.272;19.890;2022-11-21T05:14:44;14.32;;;9.50;;
55320;SDS011;41184;44.272;19.890;2022-11-21T05:17:10;13.60;;;9.27;;
55320;SDS011;41184;44.272;19.890;2022-11-21T05:19:36;12.38;;;9.23;;
55320;SDS011;41184;44.272;19.890;2022-11-21T05:22:02;11.50;;;8.27;;
55320;SDS011;41184;44.272;19.890;2022-11-21T05:24:28;12.75;;;9.13;;
55320;SDS011;41184;44.272;19.890;2022-11-21T05:26:54;16.08;;;10.82;;
55320;SDS011;41184;44.272;19.890;2022-11-21T05:29:20;18.50;;;12.10;;
55320;SDS011;41184;44.272;19.890;2022-11-21T05:31:46;15.70;;;10.73;;
55320;SDS011;41184;44.272;19.890;2022-11-21T05:34:12;15.82;;;10.93;;
55320;SDS011;41184;44.272;19.890;2022-11-21T05:36:38;13.63;;;9.27;;
55320;SDS011;41184;44.272;19.890;2022-11-21T05:39:04;11.48;;;8.00;;
55320;SDS011;41184;44.272;19.890;2022-11-21T05:41:30;11.80;;;8.25;;
55320;SDS011;41184;44.272;19.890;2022-11-21T05:43:56;14.25;;;9.20;;
55320;SDS011;41184;44.272;19.890;2022-11-21T05:46:23;15.38;;;11.00;;
55320;SDS011;41184;44.272;19.890;2022-11-21T05:48:50;15.20;;;10.13;;
55320;SDS011;41184;44.272;19.890;2022-11-21T05:51:16;16.05;;;11.32;;
55320;SDS011;41184;44.272;19.890;2022-11-21T05:53:43;16.42;;;11.73;;
55320;SDS011;41184;44.272;19.890;2022-11-21T05:56:11;17.70;;;12.05;;
55320;SDS011;41184;44.272;19.890;2022-11-21T05:58:37;17.55;;;12.43;;
55320;SDS011;41184;44.272;19.890;2022-11-21T06:01:03;17.83;;;12.25;;
55320;SDS011;41184;44.272;19.890;2022-11-21T06:03:31;19.38;;;12.95;;
55320;SDS011;41184;44.272;19.890;2022-11-21T06:08:33;17.27;;;12.93;;
55320;SDS011;41184;44.272;19.890;2022-11-21T06:11:00;16.23;;;11.25;;
55320;SDS011;41184;44.272;19.890;2022-11-21T06:13:26;13.35;;;10.35;;
55320;SDS011;41184;44.272;19.890;2022-11-21T06:16:00;15.10;;;11.15;;
55320;SDS011;41184;44.272;19.890;2022-11-21T06:18:27;14.88;;;10.57;;
55320;SDS011;41184;44.272;19.890;2022-11-21T06:20:59;18.90;;;13.63;;
55320;SDS011;41184;44.272;19.890;2022-11-21T06:23:25;19.10;;;12.65;;
55320;SDS011;41184;44.272;19.890;2022-11-21T06:25:55;19.92;;;12.52;;
55320;SDS011;41184;44.272;19.890;2022-11-21T06:28:21;21.38;;;14.20;;
55320;SDS011;41184;44.272;19.890;2022-11-21T06:30:47;20.25;;;15.98;;
55320;SDS011;41184;44.272;19.890;2022-11-21T06:33:16;19.42;;;14.68;;
55320;SDS011;41184;44.272;19.890;2022-11-21T06:35:42;20.92;;;14.73;;
55320;SDS011;41184;44.272;19.890;2022-11-21T06:38:08;19.17;;;12.65;;
55320;SDS011;41184;44.272;19.890;2022-11-21T06:40:37;21.75;;;14.98;;
55320;SDS011;41184;44.272;19.890;2022-11-21T06:43:03;20.45;;;15.55;;
55320;SDS011;41184;44.272;19.890;2022-11-21T06:45:29;20.10;;;14.85;;
55320;SDS011;41184;44.272;19.890;2022-11-21T06:47:55;22.70;;;16.38;;
55320;SDS011;41184;44.272;19.890;2022-11-21T06:50:21;20.38;;;15.30;;
55320;SDS011;41184;44.272;19.890;2022-11-21T06:52:47;28.58;;;19.92;;
55320;SDS011;41184;44.272;19.890;2022-11-21T06:55:13;33.55;;;22.10;;
55320;SDS011;41184;44.272;19.890;2022-11-21T06:57:39;27.35;;;22.00;;
55320;SDS011;41184;44.272;19.890;2022-11-21T07:00:06;30.33;;;22.85;;
55320;SDS011;41184;44.272;19.890;2022-11-21T07:02:32;30.80;;;22.15;;
55320;SDS011;41184;44.272;19.890;2022-11-21T07:04:58;28.92;;;19.58;;
55320;SDS011;41184;44.272;19.890;2022-11-21T07:07:24;28.23;;;21.83;;
55320;SDS011;41184;44.272;19.890;2022-11-21T07:09:50;29.05;;;20.95;;
55320;SDS011;41184;44.272;19.890;2022-11-21T07:12:16;30.92;;;22.85;;
55320;SDS011;41184;44.272;19.890;2022-11-21T07:15:00;27.48;;;19.75;;
55320;SDS011;41184;44.272;19.890;2022-11-21T07:17:27;35.05;;;23.17;;
55320;SDS011;41184;44.272;19.890;2022-11-21T07:19:53;26.48;;;19.98;;
55320;SDS011;41184;44.272;19.890;2022-11-21T07:22:19;32.13;;;22.88;;
55320;SDS011;41184;44.272;19.890;2022-11-21T07:24:45;31.75;;;22.50;;
55320;SDS011;41184;44.272;19.890;2022-11-21T07:27:11;36.38;;;25.98;;
55320;SDS011;41184;44.272;19.890;2022-11-21T07:29:37;34.78;;;25.02;;
55320;SDS011;41184;44.272;19.890;2022-11-21T07:32:03;33.55;;;23.75;;
55320;SDS011;41184;44.272;19.890;2022-11-21T07:34:29;26.80;;;19.70;;
55320;SDS011;41184;44.272;19.890;2022-11-21T07:36:55;29.25;;;20.40;;
55320;SDS011;41184;44.272;19.890;2022-11-21T07:39:21;36.65;;;25.33;;
55320;SDS011;41184;44.272;19.890;2022-11-21T07:41:47;48.75;;;30.98;;
55320;SDS011;41184;44.272;19.890;2022-11-21T07:44:13;38.08;;;27.70;;
55320;SDS011;41184;44.272;19.890;2022-11-21T07:46:39;36.85;;;27.05;;
55320;SDS011;41184;44.272;19.890;2022-11-21T07:49:05;30.25;;;23.00;;
55320;SDS011;41184;44.272;19.890;2022-11-21T07:51:31;34.50;;;23.88;;
55320;SDS011;41184;44.272;19.890;2022-11-21T07:53:57;35.00;;;26.73;;
55320;SDS011;41184;44.272;19.890;2022-11-21T07:56:23;34.53;;;25.55;;
55320;SDS011;41184;44.272;19.890;2022-11-21T07:58:51;30.73;;;23.95;;
55320;SDS011;41184;44.272;19.890;2022-11-21T08:01:17;27.88;;;21.08;;
55320;SDS011;41184;44.272;19.890;2022-11-21T08:03:43;25.08;;;17.83;;
55320;SDS011;41184;44.272;19.890;2022-11-21T08:06:09;27.05;;;19.92;;
55320;SDS011;41184;44.272;19.890;2022-11-21T08:08:37;33.95;;;24.63;;
55320;SDS011;41184;44.272;19.890;2022-11-21T08:11:04;34.83;;;26.13;;
55320;SDS011;41184;44.272;19.890;2022-11-21T08:13:30;38.17;;;24.10;;
55320;SDS011;41184;44.272;19.890;2022-11-21T08:15:56;31.85;;;23.27;;
55320;SDS011;41184;44.272;19.890;2022-11-21T08:18:22;32.90;;;22.83;;
55320;SDS011;41184;44.272;19.890;2022-11-21T08:20:48;33.63;;;24.98;;
55320;SDS011;41184;44.272;19.890;2022-11-21T08:23:14;35.05;;;25.73;;
55320;SDS011;41184;44.272;19.890;2022-11-21T08:25:40;33.22;;;24.80;;
55320;SDS011;41184;44.272;19.890;2022-11-21T08:28:07;35.28;;;22.90;;
55320;SDS011;41184;44.272;19.890;2022-11-21T08:30:34;35.25;;;25.35;;
55320;SDS011;41184;44.272;19.890;2022-11-21T08:33:00;33.95;;;25.05;;
55320;SDS011;41184;44.272;19.890;2022-11-21T08:35:26;30.10;;;22.13;;
55320;SDS011;41184;44.272;19.890;2022-11-21T08:37:59;33.15;;;21.00;;
55320;SDS011;41184;44.272;19.890;2022-11-21T08:40:26;31.13;;;22.02;;
55320;SDS011;41184;44.272;19.890;2022-11-21T08:42:59;30.25;;;21.65;;
55320;SDS011;41184;44.272;19.890;2022-11-21T08:45:26;26.98;;;19.27;;
55320;SDS011;41184;44.272;19.890;2022-11-21T08:47:52;27.45;;;20.75;;
55320;SDS011;41184;44.272;19.890;2022-11-21T08:50:18;27.30;;;20.17;;
55320;SDS011;41184;44.272;19.890;2022-11-21T08:52:44;32.92;;;23.63;;
55320;SDS011;41184;44.272;19.890;2022-11-21T08:55:11;38.22;;;27.15;;
55320;SDS011;41184;44.272;19.890;2022-11-21T08:57:37;35.45;;;26.88;;
55320;SDS011;41184;44.272;19.890;2022-11-21T09:00:03;34.63;;;24.85;;
55320;SDS011;41184;44.272;19.890;2022-11-21T09:02:30;31.35;;;23.30;;
55320;SDS011;41184;44.272;19.890;2022-11-21T09:04:56;26.75;;;20.73;;
55320;SDS011;41184;44.272;19.890;2022-11-21T09:07:22;33.20;;;22.70;;
55320;SDS011;41184;44.272;19.890;2022-11-21T09:09:48;28.58;;;21.77;;
55320;SDS011;41184;44.272;19.890;2022-11-21T09:12:14;30.83;;;22.83;;
55320;SDS011;41184;44.272;19.890;2022-11-21T09:14:40;34.22;;;25.08;;
55320;SDS011;41184;44.272;19.890;2022-11-21T09:17:25;22.73;;;17.13;;
55320;SDS011;41184;44.272;19.890;2022-11-21T09:20:09;28.65;;;23.15;;
55320;SDS011;41184;44.272;19.890;2022-11-21T09:22:35;45.15;;;28.40;;
55320;SDS011;41184;44.272;19.890;2022-11-21T09:25:02;31.80;;;23.52;;
55320;SDS011;41184;44.272;19.890;2022-11-21T09:27:28;39.97;;;28.27;;
55320;SDS011;41184;44.272;19.890;2022-11-21T09:29:54;25.95;;;20.40;;
55320;SDS011;41184;44.272;19.890;2022-11-21T09:32:21;49.88;;;29.05;;
55320;SDS011;41184;44.272;19.890;2022-11-21T09:34:47;43.60;;;26.50;;
55320;SDS011;41184;44.272;19.890;2022-11-21T09:37:13;29.77;;;19.02;;
55320;SDS011;41184;44.272;19.890;2022-11-21T09:39:39;21.30;;;17.38;;
55320;SDS011;41184;44.272;19.890;2022-11-21T09:47:05;22.90;;;16.17;;
55320;SDS011;41184;44.272;19.890;2022-11-21T09:49:36;22.42;;;15.77;;
55320;SDS011;41184;44.272;19.890;2022-11-21T09:52:06;22.27;;;16.63;;
55320;SDS011;41184;44.272;19.890;2022-11-21T09:54:33;23.40;;;17.23;;
55320;SDS011;41184;44.272;19.890;2022-11-21T09:56:59;26.85;;;21.08;;
55320;SDS011;41184;44.272;19.890;2022-11-21T09:59:28;24.58;;;18.05;;
55320;SDS011;41184;44.272;19.890;2022-11-21T10:01:57;17.35;;;12.43;;
55320;SDS011;41184;44.272;19.890;2022-11-21T10:04:23;18.42;;;13.60;;
55320;SDS011;41184;44.272;19.890;2022-11-21T10:07:06;39.40;;;22.92;;
55320;SDS011;41184;44.272;19.890;2022-11-21T10:09:53;22.17;;;16.20;;
55320;SDS011;41184;44.272;19.890;2022-11-21T10:18:06;20.00;;;13.68;;
55320;SDS011;41184;44.272;19.890;2022-11-21T10:20:45;27.05;;;18.70;;
55320;SDS011;41184;44.272;19.890;2022-11-21T10:31:31;21.48;;;17.05;;
55320;SDS011;41184;44.272;19.890;2022-11-21T10:33:57;31.10;;;21.10;;
55320;SDS011;41184;44.272;19.890;2022-11-21T10:36:29;23.42;;;17.77;;
55320;SDS011;41184;44.272;19.890;2022-11-21T10:39:00;21.63;;;16.63;;
55320;SDS011;41184;44.272;19.890;2022-11-21T10:41:36;20.85;;;15.40;;
55320;SDS011;41184;44.272;19.890;2022-11-21T10:44:25;17.65;;;13.77;;
55320;SDS011;41184;44.272;19.890;2022-11-21T10:47:12;18.83;;;13.40;;
55320;SDS011;41184;44.272;19.890;2022-11-21T10:49:38;18.83;;;15.38;;
55320;SDS011;41184;44.272;19.890;2022-11-21T10:52:06;15.35;;;11.23;;
55320;SDS011;41184;44.272;19.890;2022-11-21T10:54:54;14.93;;;12.10;;
55320;SDS011;41184;44.272;19.890;2022-11-21T10:57:20;20.58;;;15.15;;
55320;SDS011;41184;44.272;19.890;2022-11-21T10:59:59;21.92;;;15.43;;
55320;SDS011;41184;44.272;19.890;2022-11-21T11:02:26;21.10;;;16.75;;
55320;SDS011;41184;44.272;19.890;2022-11-21T11:07:37;15.38;;;10.63;;
55320;SDS011;41184;44.272;19.890;2022-11-21T11:10:22;15.98;;;11.95;;
55320;SDS011;41184;44.272;19.890;2022-11-21T11:12:48;20.63;;;15.38;;
55320;SDS011;41184;44.272;19.890;2022-11-21T11:15:33;21.42;;;13.55;;
55320;SDS011;41184;44.272;19.890;2022-11-21T11:18:02;18.08;;;12.23;;
55320;SDS011;41184;44.272;19.890;2022-11-21T11:22:55;18.42;;;14.20;;
55320;SDS011;41184;44.272;19.890;2022-11-21T11:25:21;23.40;;;18.55;;
55320;SDS011;41184;44.272;19.890;2022-11-21T11:27:47;18.65;;;13.95;;
55320;SDS011;41184;44.272;19.890;2022-11-21T11:30:14;16.92;;;12.82;;
55320;SDS011;41184;44.272;19.890;2022-11-21T11:32:40;15.43;;;12.15;;
55320;SDS011;41184;44.272;19.890;2022-11-21T11:37:39;20.50;;;13.77;;
55320;SDS011;41184;44.272;19.890;2022-11-21T11:48:09;14.30;;;10.77;;
55320;SDS011;41184;44.272;19.890;2022-11-21T11:50:55;13.10;;;10.88;;
55320;SDS011;41184;44.272;19.890;2022-11-21T11:53:25;16.95;;;13.93;;
55320;SDS011;41184;44.272;19.890;2022-11-21T11:58:44;20.38;;;13.20;;
55320;SDS011;41184;44.272;19.890;2022-11-21T12:06:08;19.10;;;14.98;;
55320;SDS011;41184;44.272;19.890;2022-11-21T12:11:06;22.05;;;15.43;;
55320;SDS011;41184;44.272;19.890;2022-11-21T12:13:55;17.48;;;13.82;;
55320;SDS011;41184;44.272;19.890;2022-11-21T12:16:22;19.17;;;14.50;;
55320;SDS011;41184;44.272;19.890;2022-11-21T12:18:51;24.92;;;16.23;;
55320;SDS011;41184;44.272;19.890;2022-11-21T12:21:19;35.50;;;23.75;;
55320;SDS011;41184;44.272;19.890;2022-11-21T12:23:51;23.90;;;17.40;;
55320;SDS011;41184;44.272;19.890;2022-11-21T12:42:16;30.38;;;25.23;;
55320;SDS011;41184;44.272;19.890;2022-11-21T12:47:49;26.05;;;18.40;;
55320;SDS011;41184;44.272;19.890;2022-11-21T12:59:13;131.35;;;97.93;;
55320;SDS011;41184;44.272;19.890;2022-11-21T13:04:10;109.45;;;88.90;;
55320;SDS011;41184;44.272;19.890;2022-11-21T13:06:39;39.53;;;31.33;;
55320;SDS011;41184;44.272;19.890;2022-11-21T13:09:06;27.25;;;19.50;;
55320;SDS011;41184;44.272;19.890;2022-11-21T13:25:12;17.63;;;13.40;;
55320;SDS011;41184;44.272;19.890;2022-11-21T13:28:21;16.65;;;12.73;;
55320;SDS011;41184;44.272;19.890;2022-11-21T13:35:57;60.25;;;36.25;;
55320;SDS011;41184;44.272;19.890;2022-11-21T13:38:23;65.55;;;41.80;;
55320;SDS011;41184;44.272;19.890;2022-11-21T13:40:49;59.28;;;39.45;;
55320;SDS011;41184;44.272;19.890;2022-11-21T13:43:33;57.42;;;39.95;;
55320;SDS011;41184;44.272;19.890;2022-11-21T13:46:00;28.05;;;18.48;;
55320;SDS011;41184;44.272;19.890;2022-11-21T14:04:37;52.85;;;42.63;;
55320;SDS011;41184;44.272;19.890;2022-11-21T14:09:50;60.50;;;40.30;;
55320;SDS011;41184;44.272;19.890;2022-11-21T14:19:54;61.97;;;52.38;;
55320;SDS011;41184;44.272;19.890;2022-11-21T14:22:30;54.05;;;45.42;;
55320;SDS011;41184;44.272;19.890;2022-11-21T14:25:00;47.17;;;40.63;;
55320;SDS011;41184;44.272;19.890;2022-11-21T14:27:30;45.88;;;35.85;;
55320;SDS011;41184;44.272;19.890;2022-11-21T14:29:57;40.33;;;33.55;;
55320;SDS011;41184;44.272;19.890;2022-11-21T14:32:27;36.75;;;27.65;;
55320;SDS011;41184;44.272;19.890;2022-11-21T14:35:07;46.08;;;32.00;;
55320;SDS011;41184;44.272;19.890;2022-11-21T14:37:33;48.92;;;33.20;;
55320;SDS011;41184;44.272;19.890;2022-11-21T14:40:00;57.70;;;38.33;;
55320;SDS011;41184;44.272;19.890;2022-11-21T14:42:34;65.38;;;43.90;;
55320;SDS011;41184;44.272;19.890;2022-11-21T14:45:20;71.28;;;46.85;;
55320;SDS011;41184;44.272;19.890;2022-11-21T14:47:50;61.42;;;40.05;;
55320;SDS011;41184;44.272;19.890;2022-11-21T14:50:23;42.10;;;29.98;;
55320;SDS011;41184;44.272;19.890;2022-11-21T14:52:49;49.70;;;36.00;;
55320;SDS011;41184;44.272;19.890;2022-11-21T14:55:28;65.15;;;43.45;;
55320;SDS011;41184;44.272;19.890;2022-11-21T14:57:55;41.35;;;29.55;;
55320;SDS011;41184;44.272;19.890;2022-11-21T15:00:23;98.78;;;61.67;;
55320;SDS011;41184;44.272;19.890;2022-11-21T15:02:51;90.15;;;58.80;;
55320;SDS011;41184;44.272;19.890;2022-11-21T15:05:18;65.05;;;41.50;;
55320;SDS011;41184;44.272;19.890;2022-11-21T15:07:47;66.32;;;44.22;;
55320;SDS011;41184;44.272;19.890;2022-11-21T15:10:13;59.42;;;39.30;;
55320;SDS011;41184;44.272;19.890;2022-11-21T15:17:44;48.92;;;32.60;;
55320;SDS011;41184;44.272;19.890;2022-11-21T15:22:36;51.55;;;35.10;;
55320;SDS011;41184;44.272;19.890;2022-11-21T15:25:22;46.47;;;30.83;;
55320;SDS011;41184;44.272;19.890;2022-11-21T15:27:49;54.33;;;37.13;;
55320;SDS011;41184;44.272;19.890;2022-11-21T15:33:01;58.45;;;41.67;;
55320;SDS011;41184;44.272;19.890;2022-11-21T15:46:16;74.85;;;44.72;;
55320;SDS011;41184;44.272;19.890;2022-11-21T15:49:00;75.03;;;46.10;;
55320;SDS011;41184;44.272;19.890;2022-11-21T15:51:34;102.45;;;71.13;;
55320;SDS011;41184;44.272;19.890;2022-11-21T15:54:00;81.50;;;53.10;;
55320;SDS011;41184;44.272;19.890;2022-11-21T15:56:27;112.43;;;76.32;;
55320;SDS011;41184;44.272;19.890;2022-11-21T15:58:53;99.72;;;57.38;;
55320;SDS011;41184;44.272;19.890;2022-11-21T16:01:20;89.50;;;53.70;;
55320;SDS011;41184;44.272;19.890;2022-11-21T16:03:50;70.72;;;46.83;;
55320;SDS011;41184;44.272;19.890;2022-11-21T16:06:16;112.97;;;74.25;;
55320;SDS011;41184;44.272;19.890;2022-11-21T16:08:43;68.20;;;48.05;;
55320;SDS011;41184;44.272;19.890;2022-11-21T16:11:15;87.47;;;58.58;;
55320;SDS011;41184;44.272;19.890;2022-11-21T16:13:41;74.78;;;51.40;;
55320;SDS011;41184;44.272;19.890;2022-11-21T16:16:09;57.85;;;43.67;;
55320;SDS011;41184;44.272;19.890;2022-11-21T16:18:36;50.05;;;36.10;;
55320;SDS011;41184;44.272;19.890;2022-11-21T16:21:05;50.33;;;37.03;;
55320;SDS011;41184;44.272;19.890;2022-11-21T16:23:31;45.20;;;33.50;;
55320;SDS011;41184;44.272;19.890;2022-11-21T16:25:57;43.92;;;31.83;;
55320;SDS011;41184;44.272;19.890;2022-11-21T16:28:23;61.78;;;42.83;;
55320;SDS011;41184;44.272;19.890;2022-11-21T16:30:49;38.15;;;29.45;;
55320;SDS011;41184;44.272;19.890;2022-11-21T16:33:15;39.03;;;28.88;;
55320;SDS011;41184;44.272;19.890;2022-11-21T16:35:41;47.40;;;34.20;;
55320;SDS011;41184;44.272;19.890;2022-11-21T16:38:10;40.03;;;30.05;;
55320;SDS011;41184;44.272;19.890;2022-11-21T16:40:37;45.50;;;34.80;;
55320;SDS011;41184;44.272;19.890;2022-11-21T16:43:10;73.60;;;52.50;;
55320;SDS011;41184;44.272;19.890;2022-11-21T16:45:37;95.45;;;67.90;;
55320;SDS011;41184;44.272;19.890;2022-11-21T16:48:04;77.43;;;54.50;;